Time;durP1;ratioP1;P1;durP2;ratioP2;P2;SDS_P1;SDS_P2;PMS_P1;PMS_P2;Temp;Humidity;BMP_temperature;BMP_pressure;BME280_temperature;BME280_humidity;BME280_pressure;Samples;Min_cycle;Max_cycle;Signal;HPM_P1;HPM_P2
2023/05/09 00:01:42;;;;;;;5.00;3.22;;;19.50;60.10;;;;;;4972916;28;20059;-52
2023/05/09 00:04:08;;;;;;;5.00;3.53;;;19.60;60.20;;;;;;4967277;28;20097;-49
2023/05/09 00:06:33;;;;;;;5.32;2.90;;;19.50;60.10;;;;;;4969830;28;20046;-49
2023/05/09 00:08:59;;;;;;;5.22;2.78;;;19.50;60.20;;;;;;4971256;28;20162;-47
2023/05/09 00:11:24;;;;;;;5.57;2.97;;;19.50;60.10;;;;;;4971440;28;20530;-49
2023/05/09 00:13:50;;;;;;;4.47;3.03;;;19.60;60.20;;;;;;4970541;28;20035;-48
2023/05/09 00:16:16;;;;;;;5.13;3.42;;;19.50;60.10;;;;;;4967902;28;20057;-51
2023/05/09 00:18:43;;;;;;;4.90;2.55;;;19.50;60.10;;;;;;4965450;23;20078;-52
2023/05/09 00:21:09;;;;;;;5.25;3.40;;;19.50;60.10;;;;;;4966776;28;20157;-51
2023/05/09 00:23:36;;;;;;;3.47;2.50;;;19.50;60.10;;;;;;4965569;28;20049;-52
2023/05/09 00:26:01;;;;;;;4.78;3.13;;;19.50;60.10;;;;;;4973566;28;20559;-53
2023/05/09 00:28:27;;;;;;;3.60;3.08;;;19.50;60.10;;;;;;4963110;28;20425;-52
2023/05/09 00:30:52;;;;;;;4.75;2.58;;;19.50;60.10;;;;;;4980964;28;20038;-50
2023/05/09 00:33:19;;;;;;;3.88;2.72;;;19.50;60.10;;;;;;4991601;28;20038;-53
2023/05/09 00:35:44;;;;;;;4.53;2.90;;;19.50;60.10;;;;;;4983135;28;20967;-53
2023/05/09 00:38:10;;;;;;;4.30;2.75;;;19.50;60.10;;;;;;4991581;28;20030;-51
2023/05/09 00:40:36;;;;;;;4.38;2.70;;;19.50;60.10;;;;;;4987720;28;20454;-51
2023/05/09 00:43:01;;;;;;;4.05;2.45;;;19.50;60.10;;;;;;4987082;28;20033;-52
2023/05/09 00:45:27;;;;;;;3.75;2.53;;;19.50;60.10;;;;;;4985310;28;20668;-51
2023/05/09 00:47:53;;;;;;;3.72;2.42;;;19.50;60.10;;;;;;4984717;28;20161;-52
2023/05/09 00:50:18;;;;;;;3.65;2.55;;;19.50;60.10;;;;;;4987169;28;20088;-52
2023/05/09 00:52:44;;;;;;;3.90;2.88;;;19.50;60.10;;;;;;4989601;28;20066;-53
2023/05/09 00:55:10;;;;;;;3.92;2.42;;;19.50;60.10;;;;;;4987266;28;20049;-51
2023/05/09 00:57:35;;;;;;;2.88;2.58;;;19.50;60.10;;;;;;4988999;28;20125;-49
2023/05/09 01:00:03;;;;;;;3.10;2.78;;;19.50;60.10;;;;;;4987055;28;20445;-51
2023/05/09 01:02:29;;;;;;;4.18;2.63;;;19.40;60.00;;;;;;4993571;28;20062;-50
2023/05/09 01:04:54;;;;;;;3.10;2.42;;;19.40;60.00;;;;;;4999250;28;20050;-51
2023/05/09 01:07:38;;;;;;;4.65;2.67;;;19.50;60.10;;;;;;4996271;28;20026;-52
2023/05/09 01:10:14;;;;;;;3.30;2.50;;;19.50;60.10;;;;;;4992032;28;20030;-50
2023/05/09 01:12:57;;;;;;;3.85;2.63;;;19.50;60.10;;;;;;4992827;28;20044;-53
2023/05/09 01:15:31;;;;;;;3.25;2.10;;;19.50;60.10;;;;;;4977224;28;20061;-51
2023/05/09 01:18:18;;;;;;;3.78;2.80;;;19.50;60.10;;;;;;4973798;28;20051;-51
2023/05/09 01:20:50;;;;;;;4.35;2.58;;;19.40;60.00;;;;;;4970088;28;20458;-53
2023/05/09 01:23:41;;;;;;;5.47;2.78;;;19.40;60.00;;;;;;4984061;28;20031;-52
2023/05/09 01:26:37;;;;;;;3.58;2.70;;;19.40;60.00;;;;;;4990871;28;20034;-52
2023/05/09 01:29:25;;;;;;;3.75;2.67;;;19.40;60.00;;;;;;4972629;28;20035;-51
2023/05/09 01:31:52;;;;;;;3.33;2.50;;;19.40;60.00;;;;;;4973213;28;20038;-53
2023/05/09 01:34:21;;;;;;;6.03;2.67;;;19.40;60.00;;;;;;4991529;28;20038;-52
2023/05/09 01:36:49;;;;;;;4.13;2.60;;;19.40;60.00;;;;;;4985149;28;20062;-53
2023/05/09 01:39:16;;;;;;;2.70;2.10;;;19.40;60.00;;;;;;4990087;28;20040;-54
2023/05/09 01:41:42;;;;;;;3.42;2.60;;;19.40;60.00;;;;;;4984599;28;20058;-55
2023/05/09 01:44:11;;;;;;;3.20;2.22;;;19.40;60.00;;;;;;4987795;28;20120;-53
2023/05/09 01:46:37;;;;;;;3.17;2.28;;;19.40;60.00;;;;;;4970410;28;20034;-53
2023/05/09 01:49:04;;;;;;;3.35;2.60;;;19.40;60.30;;;;;;4989702;28;20121;-50
2023/05/09 01:51:30;;;;;;;2.17;1.98;;;19.40;60.00;;;;;;4984149;28;20124;-50
2023/05/09 01:53:57;;;;;;;3.70;2.55;;;19.40;60.00;;;;;;4994101;28;20030;-53
2023/05/09 01:56:24;;;;;;;3.88;2.83;;;19.40;60.00;;;;;;4989328;28;20034;-53
2023/05/09 01:58:51;;;;;;;3.10;1.95;;;19.40;60.00;;;;;;4989392;28;20622;-50
2023/05/09 02:01:18;;;;;;;4.97;2.25;;;19.40;59.90;;;;;;4990934;28;20057;-53
2023/05/09 02:03:45;;;;;;;2.90;2.60;;;19.40;60.00;;;;;;4989360;28;20027;-49
2023/05/09 02:06:12;;;;;;;3.35;2.10;;;19.40;60.00;;;;;;4990038;28;20778;-51
2023/05/09 02:08:38;;;;;;;3.65;2.50;;;19.40;60.00;;;;;;4965506;28;20448;-51
2023/05/09 02:11:04;;;;;;;3.25;2.50;;;19.40;60.00;;;;;;4985484;28;20057;-51
2023/05/09 02:13:29;;;;;;;5.88;2.83;;;19.40;60.00;;;;;;4987444;28;20639;-52
2023/05/09 02:15:55;;;;;;;2.97;2.38;;;19.40;60.00;;;;;;4987902;28;20035;-52
2023/05/09 02:18:21;;;;;;;3.50;2.42;;;19.40;59.90;;;;;;4989895;28;20038;-52
2023/05/09 02:20:47;;;;;;;3.15;2.33;;;19.30;59.90;;;;;;4990538;28;20747;-52
2023/05/09 02:23:12;;;;;;;3.05;2.30;;;19.40;60.00;;;;;;4990222;28;20842;-52
2023/05/09 02:25:39;;;;;;;3.08;2.08;;;19.40;60.00;;;;;;4986653;28;20153;-52
2023/05/09 02:28:06;;;;;;;4.05;2.67;;;19.40;59.90;;;;;;4990365;28;20137;-53
2023/05/09 02:30:37;;;;;;;2.83;2.25;;;19.40;59.90;;;;;;4979922;28;20080;-53
2023/05/09 02:33:06;;;;;;;3.33;2.55;;;19.30;59.80;;;;;;4990278;28;20041;-54
2023/05/09 02:35:32;;;;;;;3.20;2.30;;;19.40;59.90;;;;;;4990795;28;20022;-52
2023/05/09 02:37:59;;;;;;;2.92;2.22;;;19.40;59.90;;;;;;4986346;28;20034;-53
2023/05/09 02:40:29;;;;;;;3.85;2.97;;;19.30;59.80;;;;;;4981969;28;20084;-50
2023/05/09 02:42:55;;;;;;;4.20;2.58;;;19.30;59.80;;;;;;4987127;28;20085;-53
2023/05/09 02:45:21;;;;;;;3.28;2.53;;;19.30;59.80;;;;;;4988599;28;20040;-50
2023/05/09 02:47:46;;;;;;;4.05;2.75;;;19.30;59.80;;;;;;4989841;28;20145;-53
2023/05/09 02:50:12;;;;;;;3.03;2.42;;;19.30;59.80;;;;;;4988370;28;20037;-51
2023/05/09 02:52:38;;;;;;;3.15;2.15;;;19.30;59.80;;;;;;4988287;28;20488;-52
2023/05/09 02:55:04;;;;;;;2.75;2.35;;;19.30;59.80;;;;;;4990002;28;20022;-54
2023/05/09 02:57:29;;;;;;;3.40;2.67;;;19.30;59.70;;;;;;4989551;28;20407;-50
2023/05/09 02:59:55;;;;;;;3.42;2.58;;;19.30;59.80;;;;;;4987383;28;20031;-52
2023/05/09 03:02:22;;;;;;;3.45;2.50;;;19.30;59.70;;;;;;4992790;28;20045;-56
2023/05/09 03:04:48;;;;;;;3.45;2.35;;;19.30;59.70;;;;;;4982890;28;20473;-53
2023/05/09 03:07:13;;;;;;;3.20;2.30;;;19.30;59.70;;;;;;4984393;28;20113;-50
2023/05/09 03:09:38;;;;;;;12.98;3.30;;;19.30;59.70;;;;;;4985236;28;20027;-52
2023/05/09 03:12:04;;;;;;;3.88;2.08;;;19.30;59.70;;;;;;4986976;28;20072;-50
2023/05/09 03:14:30;;;;;;;2.78;2.42;;;19.30;59.70;;;;;;4975385;28;20039;-50
2023/05/09 03:16:55;;;;;;;2.72;2.25;;;19.30;59.70;;;;;;4988316;28;20499;-55
2023/05/09 03:19:21;;;;;;;2.88;2.10;;;19.20;59.60;;;;;;4990843;28;20431;-51
2023/05/09 03:21:46;;;;;;;4.18;2.45;;;19.30;59.60;;;;;;4985161;28;20538;-48
2023/05/09 03:24:12;;;;;;;3.10;2.35;;;19.30;59.70;;;;;;4990812;28;20026;-51
2023/05/09 03:26:37;;;;;;;4.03;2.22;;;19.30;59.70;;;;;;4989583;28;20046;-55
2023/05/09 03:29:03;;;;;;;5.32;2.08;;;19.20;60.00;;;;;;4985613;28;20022;-51
2023/05/09 03:31:28;;;;;;;3.42;2.38;;;19.20;59.60;;;;;;4968016;28;20169;-49
2023/05/09 03:33:54;;;;;;;2.25;2.05;;;19.20;59.60;;;;;;4964227;28;20069;-49
2023/05/09 03:36:19;;;;;;;3.47;2.33;;;19.20;59.50;;;;;;4984371;28;20369;-54
2023/05/09 03:38:45;;;;;;;2.88;2.05;;;19.20;59.60;;;;;;4985074;28;20295;-54
2023/05/09 03:41:12;;;;;;;2.55;2.10;;;19.20;59.50;;;;;;4984874;28;20042;-52
2023/05/09 03:43:38;;;;;;;2.50;2.08;;;19.20;59.50;;;;;;4986086;28;20426;-51
2023/05/09 03:46:03;;;;;;;2.63;2.20;;;19.20;59.50;;;;;;4989383;28;20026;-53
2023/05/09 03:48:29;;;;;;;2.60;2.40;;;19.20;59.50;;;;;;4988940;28;20037;-50
2023/05/09 03:50:54;;;;;;;2.25;2.03;;;19.20;59.50;;;;;;4988719;28;20034;-52
2023/05/09 03:53:20;;;;;;;2.50;2.10;;;19.20;59.40;;;;;;4990278;28;20092;-50
2023/05/09 03:55:45;;;;;;;3.90;2.22;;;19.20;59.50;;;;;;4988287;28;20117;-52
2023/05/09 03:58:11;;;;;;;3.38;2.15;;;19.20;59.40;;;;;;4980686;28;20531;-49
2023/05/09 04:00:37;;;;;;;2.72;2.42;;;19.20;59.30;;;;;;4988118;28;20033;-52
2023/05/09 04:03:03;;;;;;;2.92;2.17;;;19.20;59.30;;;;;;4979737;28;20037;-50
2023/05/09 04:05:29;;;;;;;2.55;2.20;;;19.20;59.30;;;;;;4983651;28;20038;-47
2023/05/09 04:07:54;;;;;;;2.88;2.03;;;19.20;59.30;;;;;;4982724;28;20038;-49
2023/05/09 04:10:20;;;;;;;2.40;2.20;;;19.20;59.30;;;;;;4986477;28;20034;-50
2023/05/09 04:12:45;;;;;;;6.93;2.40;;;19.20;59.30;;;;;;4969838;28;20030;-50
2023/05/09 04:15:11;;;;;;;3.13;2.20;;;19.20;59.30;;;;;;4988228;28;20436;-49
2023/05/09 04:17:36;;;;;;;2.55;2.35;;;19.20;59.30;;;;;;4984592;28;20136;-51
2023/05/09 04:20:02;;;;;;;2.70;2.30;;;19.20;59.30;;;;;;4987438;28;20062;-52
2023/05/09 04:22:27;;;;;;;2.45;1.95;;;19.20;59.20;;;;;;4991027;28;20019;-52
2023/05/09 04:24:53;;;;;;;2.97;2.50;;;19.20;59.30;;;;;;4982846;28;20258;-52
2023/05/09 04:27:19;;;;;;;3.50;2.42;;;19.20;59.00;;;;;;4971954;28;20073;-53
2023/05/09 04:29:44;;;;;;;4.15;2.40;;;19.30;58.80;;;;;;4986492;28;20096;-54
2023/05/09 04:32:10;;;;;;;2.53;2.30;;;19.30;58.70;;;;;;4983003;28;20297;-52
2023/05/09 04:34:36;;;;;;;3.42;2.15;;;19.40;58.60;;;;;;4983945;28;20507;-50
2023/05/09 04:37:01;;;;;;;4.00;2.20;;;19.40;58.50;;;;;;4988018;28;20108;-50
2023/05/09 04:39:27;;;;;;;2.22;2.03;;;19.40;58.50;;;;;;4989860;28;20037;-50
2023/05/09 04:41:52;;;;;;;2.67;1.83;;;19.40;58.40;;;;;;4990983;28;20044;-50
2023/05/09 04:44:18;;;;;;;3.72;2.30;;;19.50;58.60;;;;;;4994228;28;20038;-52
2023/05/09 04:46:43;;;;;;;3.10;2.08;;;19.50;58.50;;;;;;4974247;28;20095;-49
2023/05/09 04:49:09;;;;;;;2.85;1.98;;;19.50;59.20;;;;;;4991116;28;20073;-49
2023/05/09 04:51:34;;;;;;;3.50;2.30;;;19.50;58.60;;;;;;4994271;28;20518;-53
2023/05/09 04:54:00;;;;;;;2.72;2.15;;;19.50;58.60;;;;;;4957892;28;20093;-52
2023/05/09 04:56:26;;;;;;;3.03;2.17;;;19.50;58.60;;;;;;4996725;28;20099;-51
2023/05/09 04:58:51;;;;;;;3.42;2.05;;;19.50;58.60;;;;;;4988925;28;20045;-52
2023/05/09 05:01:17;;;;;;;2.40;1.85;;;19.50;58.60;;;;;;4987676;28;20035;-52
2023/05/09 05:03:42;;;;;;;2.47;1.83;;;19.50;58.60;;;;;;4986581;28;20298;-50
2023/05/09 05:06:08;;;;;;;2.30;2.10;;;19.60;58.60;;;;;;4986577;28;20034;-53
2023/05/09 05:08:33;;;;;;;2.33;2.13;;;19.60;58.60;;;;;;4989264;28;20037;-55
2023/05/09 05:10:59;;;;;;;3.05;2.25;;;19.60;58.60;;;;;;4989655;28;20518;-50
2023/05/09 05:13:24;;;;;;;3.63;2.10;;;19.60;58.60;;;;;;4990210;28;20129;-53
2023/05/09 05:15:50;;;;;;;3.25;2.17;;;19.60;58.70;;;;;;4989782;28;20039;-50
2023/05/09 05:18:16;;;;;;;2.67;2.08;;;19.60;58.60;;;;;;4981386;28;20747;-53
2023/05/09 05:20:42;;;;;;;4.55;2.50;;;19.60;58.70;;;;;;4986339;28;20057;-51
2023/05/09 05:23:08;;;;;;;4.55;2.17;;;19.70;58.70;;;;;;4987245;28;20032;-52
2023/05/09 05:25:34;;;;;;;3.15;2.30;;;19.70;58.90;;;;;;4977631;28;20041;-58
2023/05/09 05:27:59;;;;;;;5.63;2.92;;;19.70;59.00;;;;;;4988422;28;20046;-52
2023/05/09 05:30:25;;;;;;;7.95;3.88;;;19.70;58.90;;;;;;4988338;28;20026;-52
2023/05/09 05:32:51;;;;;;;7.25;4.70;;;19.70;58.80;;;;;;4971552;28;20034;-53
2023/05/09 05:35:16;;;;;;;11.73;5.13;;;19.70;58.90;;;;;;4970008;28;20034;-52
2023/05/09 05:37:43;;;;;;;7.65;5.30;;;19.80;59.00;;;;;;4967581;28;20065;-49
2023/05/09 05:40:09;;;;;;;9.05;5.35;;;19.80;59.00;;;;;;4970835;28;20105;-54
2023/05/09 05:42:34;;;;;;;12.30;5.28;;;19.80;59.00;;;;;;4974169;28;20043;-60
2023/05/09 05:45:03;;;;;;;7.78;5.13;;;19.80;59.10;;;;;;4970329;28;20107;-54
2023/05/09 05:47:33;;;;;;;6.97;5.65;;;19.80;59.00;;;;;;4966853;28;20035;-50
2023/05/09 05:49:59;;;;;;;9.20;5.30;;;19.80;59.10;;;;;;4963920;28;20133;-50
2023/05/09 05:52:25;;;;;;;8.43;5.43;;;19.80;59.10;;;;;;4973062;28;20512;-51
2023/05/09 05:54:51;;;;;;;7.78;5.32;;;19.80;59.10;;;;;;4975955;28;20054;-51
2023/05/09 05:57:17;;;;;;;9.45;5.07;;;19.80;59.10;;;;;;4973027;28;20120;-49
2023/05/09 05:59:42;;;;;;;11.27;5.38;;;19.80;59.10;;;;;;4984357;28;20535;-51
2023/05/09 06:02:08;;;;;;;13.38;5.45;;;19.80;59.10;;;;;;4987020;28;20038;-51
2023/05/09 06:04:33;;;;;;;8.88;4.95;;;19.80;59.10;;;;;;4985172;28;20081;-54
2023/05/09 06:06:59;;;;;;;4.88;4.38;;;19.70;59.00;;;;;;4986639;28;20435;-51
2023/05/09 06:09:24;;;;;;;5.28;4.68;;;19.80;59.20;;;;;;4991835;28;20042;-51
2023/05/09 06:11:50;;;;;;;7.63;5.32;;;19.80;59.30;;;;;;4990637;28;20034;-52
2023/05/09 06:14:15;;;;;;;8.30;5.50;;;19.80;59.30;;;;;;4988537;28;20033;-53
2023/05/09 06:16:41;;;;;;;10.23;5.63;;;19.80;59.40;;;;;;4985616;28;20523;-51
2023/05/09 06:19:06;;;;;;;8.40;5.88;;;19.80;59.40;;;;;;4973878;28;20116;-50
2023/05/09 06:21:33;;;;;;;7.93;4.97;;;19.70;59.40;;;;;;4981635;28;20030;-51
2023/05/09 06:23:58;;;;;;;7.15;5.65;;;19.70;59.40;;;;;;4987351;28;20681;-55
2023/05/09 06:26:25;;;;;;;9.85;5.13;;;19.70;59.40;;;;;;4987193;28;20026;-52
2023/05/09 06:28:50;;;;;;;9.85;5.07;;;19.70;59.30;;;;;;4987513;28;20731;-53
2023/05/09 06:31:16;;;;;;;8.90;4.85;;;19.70;59.40;;;;;;4970687;28;20039;-53
2023/05/09 06:33:41;;;;;;;8.32;5.18;;;19.80;59.40;;;;;;4985493;28;22699;-52
2023/05/09 06:36:07;;;;;;;8.82;5.07;;;19.70;59.30;;;;;;4987211;28;20655;-54
2023/05/09 06:38:33;;;;;;;7.25;4.90;;;19.70;59.30;;;;;;4989084;28;20095;-50
2023/05/09 06:40:58;;;;;;;8.20;4.93;;;19.70;59.30;;;;;;4987532;28;20415;-52
2023/05/09 06:43:24;;;;;;;7.35;4.35;;;19.70;59.30;;;;;;4991115;28;20026;-53
2023/05/09 06:45:49;;;;;;;9.90;4.65;;;19.70;59.30;;;;;;4991764;28;20030;-53
2023/05/09 06:48:15;;;;;;;8.50;4.75;;;19.70;59.20;;;;;;4984172;28;20030;-51
2023/05/09 06:50:40;;;;;;;11.02;5.35;;;19.70;59.80;;;;;;4985570;28;20112;-54
2023/05/09 06:53:06;;;;;;;9.10;4.65;;;19.70;59.20;;;;;;4989945;28;20038;-63
2023/05/09 06:55:31;;;;;;;11.85;6.32;;;19.70;59.20;;;;;;4985907;28;20027;-51
2023/05/09 06:57:57;;;;;;;21.75;9.27;;;19.70;59.50;;;;;;4982280;28;20184;-55
2023/05/09 07:00:22;;;;;;;27.25;11.00;;;19.70;60.00;;;;;;4977635;28;20310;-54
2023/05/09 07:02:48;;;;;;;29.15;11.68;;;19.70;60.10;;;;;;4986088;28;20121;-51
2023/05/09 07:05:14;;;;;;;23.67;12.07;;;19.70;60.20;;;;;;4986041;28;20027;-54
2023/05/09 07:07:40;;;;;;;25.35;11.68;;;19.70;60.50;;;;;;4988565;28;20042;-51
2023/05/09 07:10:06;;;;;;;25.42;11.10;;;19.70;60.40;;;;;;4985911;28;20030;-53
2023/05/09 07:12:32;;;;;;;31.13;10.40;;;19.70;60.40;;;;;;4987165;28;20034;-53
2023/05/09 07:14:58;;;;;;;25.08;10.27;;;19.70;60.40;;;;;;4988069;28;20023;-53
2023/05/09 07:17:24;;;;;;;21.35;8.05;;;19.70;60.50;;;;;;4978682;28;20030;-55
2023/05/09 07:19:50;;;;;;;22.00;10.68;;;19.70;60.40;;;;;;4985214;28;20033;-54
2023/05/09 07:22:15;;;;;;;17.40;7.60;;;19.70;60.10;;;;;;4993828;28;20039;-49
2023/05/09 07:24:43;;;;;;;16.50;8.38;;;19.70;59.80;;;;;;4985437;28;20675;-53
2023/05/09 07:27:08;;;;;;;13.10;6.93;;;19.70;59.60;;;;;;4985524;28;20463;-54
2023/05/09 07:29:34;;;;;;;12.25;6.40;;;19.60;59.30;;;;;;4978345;28;20046;-52
2023/05/09 07:32:00;;;;;;;16.48;6.25;;;19.60;58.90;;;;;;4983509;28;20039;-51
2023/05/09 07:34:26;;;;;;;10.18;5.85;;;19.60;58.40;;;;;;4984210;28;20506;-52
2023/05/09 07:36:51;;;;;;;10.23;5.03;;;19.60;57.90;;;;;;4988084;28;20084;-51
2023/05/09 07:39:17;;;;;;;7.50;4.63;;;19.60;57.30;;;;;;4986635;28;20085;-50
2023/05/09 07:41:42;;;;;;;12.70;4.35;;;19.60;56.90;;;;;;4989376;28;20785;-52
2023/05/09 07:44:08;;;;;;;10.48;4.70;;;19.60;56.90;;;;;;4968549;28;20150;-51
2023/05/09 07:46:36;;;;;;;10.20;4.30;;;19.60;56.30;;;;;;4973377;28;20038;-55
2023/05/09 07:49:02;;;;;;;5.30;3.25;;;19.60;56.50;;;;;;4963398;28;20037;-52
2023/05/09 07:51:27;;;;;;;5.80;3.90;;;19.60;56.30;;;;;;4958550;28;20030;-51
2023/05/09 07:53:55;;;;;;;6.40;3.83;;;19.50;56.40;;;;;;4965464;28;20038;-61
2023/05/09 07:56:21;;;;;;;8.60;3.53;;;19.60;56.80;;;;;;4970687;28;20023;-51
2023/05/09 07:58:47;;;;;;;8.90;3.40;;;19.60;56.60;;;;;;4968211;28;20125;-53
2023/05/09 08:01:12;;;;;;;5.53;3.40;;;19.50;56.50;;;;;;4986052;28;20045;-51
2023/05/09 08:03:38;;;;;;;4.82;3.20;;;19.50;56.90;;;;;;4974851;28;20038;-53
2023/05/09 08:06:03;;;;;;;6.80;3.13;;;19.60;56.50;;;;;;4974762;28;20037;-54
2023/05/09 08:08:29;;;;;;;5.53;3.00;;;19.50;56.30;;;;;;4971259;28;20073;-48
2023/05/09 08:10:55;;;;;;;4.63;3.00;;;19.50;56.60;;;;;;4972362;28;20447;-52
2023/05/09 08:13:21;;;;;;;7.32;3.85;;;19.50;57.00;;;;;;4973138;28;20053;-51
2023/05/09 08:15:47;;;;;;;6.22;2.95;;;19.60;57.20;;;;;;4982054;28;20063;-52
2023/05/09 08:18:13;;;;;;;8.00;3.30;;;19.50;57.30;;;;;;4988254;28;20053;-50
2023/05/09 08:20:39;;;;;;;5.07;2.80;;;19.50;57.50;;;;;;4988843;28;20431;-53
2023/05/09 08:23:04;;;;;;;5.88;2.90;;;19.50;57.50;;;;;;4991628;28;20030;-52
2023/05/09 08:25:30;;;;;;;5.80;2.80;;;19.60;57.60;;;;;;4975245;28;20031;-53
2023/05/09 08:27:55;;;;;;;8.52;3.58;;;19.60;57.50;;;;;;4972536;28;20065;-52
2023/05/09 08:30:21;;;;;;;5.60;2.95;;;19.50;57.60;;;;;;4976677;28;20109;-54
2023/05/09 08:32:47;;;;;;;6.38;3.35;;;19.50;57.40;;;;;;4988126;28;20153;-48
2023/05/09 08:35:12;;;;;;;4.38;2.40;;;19.50;57.40;;;;;;4988889;28;20049;-53
2023/05/09 08:37:37;;;;;;;5.60;2.60;;;19.60;57.20;;;;;;4989171;28;20045;-52
2023/05/09 08:40:08;;;;;;;3.10;2.33;;;19.50;57.20;;;;;;4990651;28;20018;-50
2023/05/09 08:42:36;;;;;;;4.53;2.85;;;19.50;57.10;;;;;;4985785;28;20048;-52
2023/05/09 08:45:15;;;;;;;4.25;2.92;;;19.50;57.00;;;;;;4971451;28;20066;-55
2023/05/09 08:47:41;;;;;;;4.90;2.80;;;19.50;57.00;;;;;;4990177;28;20034;-52
2023/05/09 08:50:07;;;;;;;5.63;2.38;;;19.50;57.00;;;;;;4987578;28;20136;-56
2023/05/09 08:52:33;;;;;;;4.82;2.88;;;19.50;56.90;;;;;;4986328;28;20121;-53
2023/05/09 08:55:00;;;;;;;4.38;2.67;;;19.50;57.20;;;;;;4989538;28;20105;-54
2023/05/09 08:57:26;;;;;;;4.43;2.63;;;19.50;56.50;;;;;;4990337;28;20685;-49
2023/05/09 08:59:52;;;;;;;4.38;2.50;;;19.50;56.60;;;;;;4991287;28;20034;-49
2023/05/09 09:02:18;;;;;;;4.60;2.70;;;19.50;56.50;;;;;;4981053;28;20183;-51
2023/05/09 09:04:44;;;;;;;4.75;2.75;;;19.50;56.60;;;;;;4992071;28;20126;-53
2023/05/09 09:07:11;;;;;;;5.70;2.67;;;19.50;56.70;;;;;;4991448;28;20141;-52
2023/05/09 09:09:42;;;;;;;4.05;2.55;;;19.50;56.60;;;;;;4991318;28;20079;-53
2023/05/09 09:12:09;;;;;;;3.80;2.70;;;19.50;56.70;;;;;;4986905;28;20125;-52
2023/05/09 09:14:38;;;;;;;4.43;2.20;;;19.50;56.70;;;;;;4986988;28;20033;-52
2023/05/09 09:17:05;;;;;;;2.20;2.00;;;19.50;56.80;;;;;;4974336;28;20432;-54
2023/05/09 09:19:32;;;;;;;3.95;2.13;;;19.50;56.70;;;;;;4989475;28;20158;-52
2023/05/09 09:22:01;;;;;;;3.90;2.65;;;19.50;56.70;;;;;;4986802;28;20735;-48
2023/05/09 09:24:27;;;;;;;4.00;2.58;;;19.40;56.50;;;;;;4981180;28;20030;-52
2023/05/09 09:26:53;;;;;;;5.22;2.33;;;19.50;56.80;;;;;;4971890;28;20407;-54
2023/05/09 09:29:19;;;;;;;4.65;2.30;;;19.50;56.70;;;;;;4963009;28;20029;-51
2023/05/09 09:31:46;;;;;;;3.47;3.05;;;19.50;56.80;;;;;;4985928;28;20081;-50
2023/05/09 09:34:17;;;;;;;2.28;2.05;;;19.50;56.80;;;;;;4986963;28;20030;-51
2023/05/09 09:36:43;;;;;;;3.05;2.05;;;19.50;56.70;;;;;;4986315;28;20627;-53
2023/05/09 09:39:12;;;;;;;4.53;2.45;;;19.50;56.80;;;;;;4984416;28;20037;-51
2023/05/09 09:41:38;;;;;;;4.32;2.55;;;19.40;56.80;;;;;;4987782;28;20125;-50
2023/05/09 09:44:08;;;;;;;3.50;2.40;;;19.50;56.90;;;;;;4988935;28;20034;-51
2023/05/09 09:47:00;;;;;;;4.93;2.40;;;19.50;56.80;;;;;;4987691;28;20023;-51
2023/05/09 09:49:26;;;;;;;3.63;2.28;;;19.40;56.70;;;;;;4970106;28;20705;-50
2023/05/09 09:51:56;;;;;;;3.38;2.33;;;19.40;56.60;;;;;;4991358;28;20528;-49
2023/05/09 09:54:24;;;;;;;3.10;2.30;;;19.40;56.30;;;;;;4989872;28;20043;-51
2023/05/09 09:56:53;;;;;;;5.07;2.50;;;19.40;56.30;;;;;;4993070;28;20049;-51
2023/05/09 09:59:22;;;;;;;5.60;2.97;;;19.40;56.40;;;;;;4969770;28;20453;-51
2023/05/09 10:02:05;;;;;;;5.88;2.55;;;19.40;57.00;;;;;;4970285;28;20095;-51
2023/05/09 10:04:34;;;;;;;5.85;2.47;;;19.40;56.20;;;;;;4972120;28;20234;-49
2023/05/09 10:07:04;;;;;;;8.27;2.78;;;19.40;56.40;;;;;;4969763;28;20125;-52
2023/05/09 10:09:31;;;;;;;5.25;1.95;;;19.40;56.50;;;;;;4965172;28;20041;-50
2023/05/09 10:12:02;;;;;;;5.40;2.30;;;19.40;56.30;;;;;;4970025;28;20165;-51
2023/05/09 10:14:30;;;;;;;5.20;2.45;;;19.40;56.40;;;;;;4961346;28;20038;-50
2023/05/09 10:16:56;;;;;;;4.70;2.10;;;19.40;56.20;;;;;;4969238;28;20039;-52
2023/05/09 10:19:25;;;;;;;6.47;2.00;;;19.40;56.30;;;;;;4967455;28;20101;-51
2023/05/09 10:22:00;;;;;;;3.30;2.20;;;19.40;56.20;;;;;;4974402;28;20035;-50
2023/05/09 10:24:46;;;;;;;5.20;2.35;;;19.40;56.20;;;;;;4976600;28;20531;-54
2023/05/09 10:27:13;;;;;;;3.85;2.28;;;19.40;56.00;;;;;;4989472;28;20523;-51
2023/05/09 10:29:44;;;;;;;4.63;2.42;;;19.40;56.00;;;;;;4972485;28;20050;-52
2023/05/09 10:32:31;;;;;;;5.32;2.63;;;19.40;55.70;;;;;;4988286;28;20092;-53
2023/05/09 10:35:04;;;;;;;3.70;2.50;;;19.40;55.60;;;;;;4979672;28;20035;-52
2023/05/09 10:37:30;;;;;;;5.63;2.33;;;19.40;55.70;;;;;;4992340;28;20037;-55
2023/05/09 10:39:56;;;;;;;4.53;2.92;;;19.40;55.80;;;;;;4987425;28;20026;-49
2023/05/09 10:42:23;;;;;;;4.32;2.13;;;19.40;55.60;;;;;;4978273;28;20042;-52
2023/05/09 10:44:51;;;;;;;2.58;2.05;;;19.40;55.70;;;;;;4986190;28;20030;-54
2023/05/09 10:47:17;;;;;;;3.92;2.30;;;19.40;55.80;;;;;;4983451;28;20030;-53
2023/05/09 10:49:43;;;;;;;3.47;1.98;;;19.40;55.80;;;;;;4989842;28;20241;-55
2023/05/09 10:52:09;;;;;;;4.13;1.98;;;19.40;55.70;;;;;;4990322;28;20543;-52
2023/05/09 10:54:35;;;;;;;5.47;2.05;;;19.40;55.90;;;;;;4991241;28;20114;-51
2023/05/09 10:57:01;;;;;;;2.70;1.70;;;19.40;55.80;;;;;;4989282;28;20042;-51
2023/05/09 10:59:44;;;;;;;2.92;1.90;;;19.40;55.80;;;;;;4983241;28;20034;-50
2023/05/09 11:02:17;;;;;;;5.85;2.40;;;19.40;55.70;;;;;;4987589;28;20039;-53
2023/05/09 11:04:44;;;;;;;4.32;2.08;;;19.40;55.70;;;;;;4985933;28;20530;-51
2023/05/09 11:07:24;;;;;;;5.05;1.50;;;19.40;55.60;;;;;;4970655;28;20038;-51
2023/05/09 11:10:10;;;;;;;5.25;2.05;;;19.40;55.40;;;;;;4965620;28;20039;-52
2023/05/09 11:12:58;;;;;;;2.63;1.92;;;19.40;55.50;;;;;;4962192;28;20181;-48
2023/05/09 11:15:25;;;;;;;4.20;1.85;;;19.40;55.40;;;;;;4986737;28;20523;-50
2023/05/09 11:18:07;;;;;;;2.88;1.80;;;19.40;55.00;;;;;;4988821;28;20057;-52
2023/05/09 11:20:34;;;;;;;2.00;1.83;;;19.40;55.50;;;;;;4986874;28;20034;-51
2023/05/09 11:23:02;;;;;;;2.13;1.50;;;19.40;55.30;;;;;;4992930;28;20026;-51
2023/05/09 11:25:28;;;;;;;2.40;1.45;;;19.40;55.30;;;;;;4991631;28;20034;-52
2023/05/09 11:27:57;;;;;;;3.83;2.20;;;19.40;55.50;;;;;;4988398;28;20076;-48
2023/05/09 11:30:35;;;;;;;5.90;1.83;;;19.40;55.30;;;;;;4988218;28;20030;-53
2023/05/09 11:33:01;;;;;;;3.20;1.80;;;19.40;55.40;;;;;;4987021;28;20045;-52
2023/05/09 11:35:26;;;;;;;3.00;1.90;;;19.40;55.40;;;;;;4984673;28;20026;-54
2023/05/09 11:37:58;;;;;;;4.80;2.17;;;19.40;55.50;;;;;;4958419;28;20030;-55
2023/05/09 11:40:25;;;;;;;1.98;1.33;;;19.40;55.60;;;;;;4973283;28;20539;-51
2023/05/09 11:42:52;;;;;;;3.80;1.52;;;19.40;55.60;;;;;;4975080;28;20538;-51
2023/05/09 11:45:19;;;;;;;3.85;1.60;;;19.40;55.60;;;;;;4984524;28;20062;-51
2023/05/09 11:47:46;;;;;;;3.38;2.08;;;19.40;55.60;;;;;;4990610;28;20118;-51
2023/05/09 11:50:13;;;;;;;3.05;1.88;;;19.40;55.70;;;;;;4990745;28;20552;-53
2023/05/09 11:52:39;;;;;;;3.05;1.85;;;19.40;55.40;;;;;;4983400;28;20046;-54
2023/05/09 11:55:09;;;;;;;3.65;1.70;;;19.40;55.30;;;;;;4971492;28;20108;-54
2023/05/09 11:57:38;;;;;;;3.53;1.88;;;19.40;55.50;;;;;;4971062;28;20030;-50
2023/05/09 12:00:05;;;;;;;2.20;1.70;;;19.40;55.10;;;;;;4971243;28;21495;-53
2023/05/09 12:02:30;;;;;;;3.30;1.80;;;19.40;54.80;;;;;;4968678;28;20396;-53
2023/05/09 12:05:08;;;;;;;2.55;1.58;;;19.40;55.30;;;;;;4989497;28;20529;-49
2023/05/09 12:07:35;;;;;;;4.10;1.60;;;19.40;54.60;;;;;;4982249;28;20027;-53
2023/05/09 12:10:03;;;;;;;2.63;1.40;;;19.40;54.00;;;;;;4982948;28;20177;-52
2023/05/09 12:12:28;;;;;;;3.17;1.45;;;19.40;54.50;;;;;;4981669;28;20054;-50
2023/05/09 12:14:54;;;;;;;4.30;2.05;;;19.40;54.20;;;;;;4989294;28;20139;-53
2023/05/09 12:17:21;;;;;;;2.20;1.50;;;19.40;54.60;;;;;;4991380;22;20031;-51
2023/05/09 12:19:47;;;;;;;5.15;1.63;;;19.40;54.60;;;;;;5001041;28;20107;-52
2023/05/09 12:22:12;;;;;;;3.40;1.55;;;19.40;54.30;;;;;;5000285;28;20116;-50
2023/05/09 12:24:38;;;;;;;3.00;1.60;;;19.40;54.50;;;;;;4993291;28;20108;-50
2023/05/09 12:27:06;;;;;;;5.28;1.67;;;19.40;54.10;;;;;;4986911;28;20402;-53
2023/05/09 12:29:32;;;;;;;4.40;1.83;;;19.40;54.40;;;;;;4986137;28;20038;-50
2023/05/09 12:31:57;;;;;;;2.80;1.33;;;19.40;54.30;;;;;;4989512;28;20045;-51
2023/05/09 12:34:23;;;;;;;3.42;1.35;;;19.40;54.40;;;;;;4985660;28;20053;-49
2023/05/09 12:36:52;;;;;;;2.92;1.35;;;19.40;54.50;;;;;;4985338;28;20089;-50
2023/05/09 12:39:20;;;;;;;2.58;1.48;;;19.40;54.60;;;;;;4982898;28;20062;-49
2023/05/09 12:41:50;;;;;;;3.80;1.30;;;19.40;54.50;;;;;;4984271;28;20038;-50
2023/05/09 12:44:21;;;;;;;1.75;1.50;;;19.40;54.60;;;;;;4980725;28;20061;-51
2023/05/09 12:47:00;;;;;;;3.70;1.35;;;19.40;54.70;;;;;;4977789;28;20038;-49